Time;durP1;ratioP1;P1;durP2;ratioP2;P2;SDS_P1;SDS_P2;PMS_P1;PMS_P2;Temp;Humidity;BMP_temperature;BMP_pressure;BME280_temperature;BME280_humidity;BME280_pressure;Samples;Min_cycle;Max_cycle;Signal;HPM_P1;HPM_P2
2023/02/09 00:01:03;;;;;;;52.07;19.10;;;;;;;-145.69;100.00;52670.16;5095536;28;20202;-81
2023/02/09 00:03:30;;;;;;;47.27;18.03;;;;;;;-145.69;100.00;52705.81;5110437;28;20552;-83
2023/02/09 00:05:58;;;;;;;43.87;18.87;;;;;;;-145.69;100.00;52678.09;5114013;28;20197;-83
2023/02/09 00:08:25;;;;;;;52.13;18.20;;;;;;;-145.69;100.00;52666.19;5113605;28;20209;-82
2023/02/09 00:10:53;;;;;;;46.13;18.50;;;;;;;-145.69;100.00;52682.03;5113662;28;20201;-82
2023/02/09 00:13:21;;;;;;;52.20;18.33;;;;;;;-145.69;100.00;52703.81;5113163;28;20197;-83
2023/02/09 00:15:49;;;;;;;47.07;16.60;;;;;;;-145.69;100.00;52668.19;5093381;28;20230;-82
2023/02/09 00:18:16;;;;;;;51.37;18.00;;;;;;;-145.69;100.00;52674.13;5093135;28;20641;-83
2023/02/09 00:20:42;;;;;;;47.43;18.30;;;;;;;-145.69;100.00;52701.84;5093344;28;20210;-82
2023/02/09 00:23:08;;;;;;;50.13;16.70;;;;;;;-145.69;100.00;52646.41;5093258;28;20206;-82
2023/02/09 00:25:37;;;;;;;47.43;17.00;;;;;;;-145.69;100.00;52699.88;5096075;28;20197;-83
2023/02/09 00:28:05;;;;;;;50.37;17.40;;;;;;;-145.69;100.00;52672.13;5108934;28;20284;-83
2023/02/09 00:30:32;;;;;;;50.70;17.20;;;;;;;-145.69;100.00;52701.84;5096812;28;20209;-81
2023/02/09 00:32:58;;;;;;;54.60;18.53;;;;;;;-145.69;100.00;52686.00;5104409;28;20190;-82
2023/02/09 00:35:25;;;;;;;47.87;17.10;;;;;;;-145.69;100.00;52680.06;5117169;28;20633;-82
2023/02/09 00:37:51;;;;;;;46.93;17.63;;;;;;;-145.69;100.00;52727.59;5110960;28;20649;-83
2023/02/09 00:40:18;;;;;;;50.53;18.53;;;;;;;-145.69;100.00;52709.78;5096136;28;20205;-82
2023/02/09 00:42:44;;;;;;;52.77;17.97;;;;;;;-145.69;100.00;52695.91;5096298;28;20324;-83
2023/02/09 00:45:12;;;;;;;51.97;18.90;;;;;;;-145.69;100.00;52733.53;5096395;28;20198;-82
2023/02/09 00:47:39;;;;;;;47.67;17.77;;;;;;;-145.69;100.00;52684.03;5096542;28;20292;-82
2023/02/09 00:50:07;;;;;;;47.97;18.50;;;;;;;-145.69;100.00;52686.00;5096440;28;20222;-82
2023/02/09 00:52:34;;;;;;;51.63;17.83;;;;;;;-145.69;100.00;52682.03;5096343;28;20209;-80
2023/02/09 00:55:00;;;;;;;51.87;18.43;;;;;;;-145.69;100.00;52691.94;5096276;28;20205;-82
2023/02/09 00:57:27;;;;;;;54.90;18.23;;;;;;;-145.69;100.00;52680.06;5096336;28;20226;-82
2023/02/09 00:59:53;;;;;;;45.33;17.43;;;;;;;-145.69;100.00;52680.06;5096130;28;20202;-83
2023/02/09 01:02:21;;;;;;;47.27;17.43;;;;;;;-145.69;100.00;52695.91;5104191;28;20197;-82
2023/02/09 01:04:47;;;;;;;54.47;20.23;;;;;;;-145.69;100.00;52695.91;5113156;28;20264;-82
2023/02/09 01:07:14;;;;;;;54.57;19.50;;;;;;;-145.69;100.00;52682.03;5095660;28;20205;-82
2023/02/09 01:09:40;;;;;;;53.33;19.73;;;;;;;-145.69;100.00;52678.09;5096590;28;20186;-82
2023/02/09 01:12:07;;;;;;;54.70;19.27;;;;;;;-145.69;100.00;52686.00;5095764;28;20206;-83
2023/02/09 01:14:33;;;;;;;60.50;20.27;;;;;;;-145.69;100.00;52705.81;5097160;28;20280;-82
2023/02/09 01:17:00;;;;;;;59.80;20.03;;;;;;;-145.69;100.00;52686.00;5095816;28;20230;-82
2023/02/09 01:19:28;;;;;;;57.60;20.37;;;;;;;-145.69;100.00;52693.94;5095818;28;20649;-82
2023/02/09 01:21:54;;;;;;;51.17;17.77;;;;;;;-145.69;100.00;52682.03;5096098;28;20633;-83
2023/02/09 01:24:21;;;;;;;53.10;17.90;;;;;;;-145.69;100.00;52693.94;5095896;28;20198;-83
2023/02/09 01:26:48;;;;;;;55.63;19.03;;;;;;;-145.69;100.00;52697.88;5096006;28;20657;-83
2023/02/09 01:29:16;;;;;;;45.53;17.47;;;;;;;-145.69;100.00;52674.13;5095918;28;20205;-83
2023/02/09 01:31:43;;;;;;;55.87;19.40;;;;;;;-145.69;100.00;52717.69;5096836;28;20206;-83
2023/02/09 01:34:12;;;;;;;55.83;19.73;;;;;;;-145.69;100.00;52666.19;5095544;28;20224;-83
2023/02/09 01:36:40;;;;;;;57.13;19.80;;;;;;;-145.69;100.00;52666.19;5095480;28;20226;-82
2023/02/09 01:39:07;;;;;;;56.73;19.70;;;;;;;-145.69;100.00;52670.16;5094731;28;20224;-83
2023/02/09 01:41:34;;;;;;;58.23;19.73;;;;;;;-145.69;100.00;52693.94;5114867;28;20700;-83
2023/02/09 01:44:02;;;;;;;60.97;20.27;;;;;;;-145.69;100.00;52656.28;5115928;28;20258;-83
2023/02/09 01:46:30;;;;;;;59.60;19.10;;;;;;;-145.69;100.00;52678.09;5116179;28;20652;-83
2023/02/09 01:49:04;;;;;;;49.83;18.60;;;;;;;-145.69;100.00;52725.63;5115857;28;20201;-82
2023/02/09 01:51:34;;;;;;;50.23;18.83;;;;;;;-145.69;100.00;52701.84;5099991;28;20198;-82
2023/02/09 01:54:07;;;;;;;51.47;18.07;;;;;;;-145.69;100.00;52678.09;5095141;28;20565;-83
2023/02/09 01:56:36;;;;;;;58.73;19.60;;;;;;;-145.69;100.00;52693.94;5095414;28;20676;-83
2023/02/09 01:59:02;;;;;;;59.93;19.47;;;;;;;-145.69;100.00;52654.31;5095273;28;20202;-83
2023/02/09 02:01:29;;;;;;;57.13;19.40;;;;;;;-145.69;100.00;52705.81;5095052;28;20191;-83
2023/02/09 02:03:55;;;;;;;63.23;20.60;;;;;;;-145.69;100.00;52701.84;5095184;28;20202;-82
2023/02/09 02:06:22;;;;;;;63.47;21.10;;;;;;;-145.69;100.00;52695.91;5114218;28;20197;-82
2023/02/09 02:08:53;;;;;;;62.57;21.77;;;;;;;-145.69;100.00;52697.88;5115693;28;20655;-83
2023/02/09 02:11:23;;;;;;;53.83;19.47;;;;;;;-145.69;100.00;52660.25;5115267;28;20541;-83
2023/02/09 02:13:50;;;;;;;58.97;20.67;;;;;;;-145.69;100.00;52693.94;5114806;28;20655;-82
2023/02/09 02:16:32;;;;;;;59.40;20.47;;;;;;;-145.69;100.00;52674.13;5114179;28;20233;-83
2023/02/09 02:19:22;;;;;;;63.33;18.63;;;;;;;-145.69;100.00;52684.03;5095225;28;20202;-82
2023/02/09 02:22:16;;;;;;;56.30;20.13;;;;;;;-145.69;100.00;52676.09;5094950;28;20205;-83
2023/02/09 02:25:04;;;;;;;52.00;19.13;;;;;;;-145.69;100.00;52699.88;5095052;28;20198;-83
2023/02/09 02:27:43;;;;;;;57.47;20.40;;;;;;;-145.69;100.00;52652.34;5092650;28;20202;-81
2023/02/09 02:30:34;;;;;;;56.50;19.70;;;;;;;-145.69;100.00;52662.22;5074330;28;20618;-82
2023/02/09 02:33:13;;;;;;;53.70;19.93;;;;;;;-145.69;100.00;52689.97;5074546;28;20240;-82
2023/02/09 02:35:46;;;;;;;58.47;20.77;;;;;;;-145.69;100.00;52654.31;5082159;28;20652;-82
2023/02/09 02:38:19;;;;;;;59.27;19.73;;;;;;;-145.69;100.00;52693.94;5114939;28;20209;-83
2023/02/09 02:40:58;;;;;;;55.57;20.30;;;;;;;-145.69;100.00;52686.00;5114905;28;20201;-83
2023/02/09 02:43:43;;;;;;;56.77;20.60;;;;;;;-145.69;100.00;52687.97;5114894;28;20234;-81
2023/02/09 02:46:17;;;;;;;47.70;17.63;;;;;;;-145.69;100.00;52654.31;5114371;28;20277;-82
2023/02/09 02:48:52;;;;;;;52.40;19.27;;;;;;;-145.69;100.00;52682.03;5114384;28;20224;-82
2023/02/09 02:51:25;;;;;;;68.20;19.67;;;;;;;-145.69;100.00;52699.88;5114475;28;20348;-81
2023/02/09 02:54:01;;;;;;;61.03;20.17;;;;;;;-145.69;100.00;52693.94;5114623;28;20293;-83
2023/02/09 02:56:32;;;;;;;47.90;17.43;;;;;;;-145.69;100.00;52705.81;5097849;28;20221;-83
2023/02/09 02:59:03;;;;;;;59.53;19.60;;;;;;;-145.69;100.00;52715.72;5094197;28;20223;-83
2023/02/09 03:01:34;;;;;;;55.77;18.70;;;;;;;-145.69;100.00;52705.81;5093945;28;20193;-83
2023/02/09 03:04:05;;;;;;;55.30;19.00;;;;;;;-145.69;100.00;52680.06;5104105;28;20254;-84
2023/02/09 03:06:32;;;;;;;58.07;19.30;;;;;;;-145.69;100.00;52695.91;5115009;28;20205;-81
2023/02/09 03:08:59;;;;;;;55.37;19.67;;;;;;;-145.69;100.00;52656.28;5100890;28;20194;-82
2023/02/09 03:11:31;;;;;;;53.23;18.03;;;;;;;-145.69;100.00;52674.13;5093969;28;20198;-82
2023/02/09 03:14:21;;;;;;;50.27;18.30;;;;;;;-145.69;100.00;52687.97;5112128;28;20609;-84
2023/02/09 03:16:58;;;;;;;55.60;18.97;;;;;;;-145.69;100.00;52703.81;5114187;28;20687;-82
2023/02/09 03:19:35;;;;;;;55.63;19.23;;;;;;;-145.69;100.00;52676.09;5114347;28;20207;-82
2023/02/09 03:22:07;;;;;;;54.47;18.67;;;;;;;-145.69;100.00;52662.22;5113958;28;20197;-82
2023/02/09 03:24:41;;;;;;;59.80;20.50;;;;;;;-145.69;100.00;52668.19;5113822;28;20646;-81
2023/02/09 03:27:15;;;;;;;58.10;19.60;;;;;;;-145.69;100.00;52715.72;5093515;28;20195;-82
2023/02/09 03:29:45;;;;;;;61.37;20.50;;;;;;;-145.69;100.00;52713.72;5093884;28;20259;-83
2023/02/09 03:32:11;;;;;;;60.10;18.77;;;;;;;-145.69;100.00;52684.03;5094042;28;20194;-83
2023/02/09 03:34:39;;;;;;;64.83;21.03;;;;;;;-145.69;100.00;52682.03;5094005;28;20244;-83
2023/02/09 03:37:06;;;;;;;65.33;20.17;;;;;;;-145.69;100.00;52674.13;5093657;28;20279;-83
2023/02/09 03:39:32;;;;;;;59.33;21.03;;;;;;;-145.69;100.00;52668.19;5093595;28;20209;-82
2023/02/09 03:41:59;;;;;;;59.97;20.57;;;;;;;-145.69;100.00;52680.06;5093526;28;20234;-82
2023/02/09 03:44:29;;;;;;;61.27;20.93;;;;;;;-145.69;100.00;52691.94;5093462;28;20198;-81
2023/02/09 03:46:57;;;;;;;64.20;20.73;;;;;;;-145.69;100.00;52697.88;5101766;28;20231;-81
2023/02/09 03:49:25;;;;;;;57.97;18.70;;;;;;;-145.69;100.00;52693.94;5114050;28;20675;-82
2023/02/09 03:51:54;;;;;;;78.73;22.27;;;;;;;-145.69;100.00;52682.03;5113688;28;20201;-82
2023/02/09 03:54:21;;;;;;;65.77;21.90;;;;;;;-145.69;100.00;52674.13;5113536;28;20201;-82
2023/02/09 03:56:48;;;;;;;65.10;22.53;;;;;;;-145.69;100.00;52707.78;5113111;28;20217;-82
2023/02/09 03:59:14;;;;;;;55.27;20.73;;;;;;;-145.69;100.00;52678.09;5113074;28;20202;-81
2023/02/09 04:01:41;;;;;;;61.37;20.90;;;;;;;-145.69;100.00;52689.97;5113879;28;20202;-81
2023/02/09 04:04:07;;;;;;;62.80;20.73;;;;;;;-145.69;100.00;52666.19;5109342;28;20261;-84
2023/02/09 04:06:35;;;;;;;66.30;20.93;;;;;;;-145.69;100.00;52674.13;5098454;28;20664;-83
2023/02/09 04:09:04;;;;;;;57.27;20.10;;;;;;;-145.69;100.00;52684.03;5097263;28;20281;-82
2023/02/09 04:11:31;;;;;;;58.57;20.63;;;;;;;-145.69;100.00;52689.97;5097796;28;20206;-83
2023/02/09 04:13:57;;;;;;;62.33;21.40;;;;;;;-145.69;100.00;52711.75;5097841;28;20202;-83
2023/02/09 04:16:24;;;;;;;63.07;22.83;;;;;;;-145.69;100.00;52674.13;5097427;28;20209;-83
2023/02/09 04:18:51;;;;;;;64.47;21.70;;;;;;;-145.69;100.00;52678.09;5097103;28;20309;-83
2023/02/09 04:21:17;;;;;;;80.70;24.47;;;;;;;-145.69;100.00;52703.81;5097055;28;20202;-83
2023/02/09 04:23:44;;;;;;;65.63;23.27;;;;;;;-145.69;100.00;52676.09;5097587;28;20661;-83
2023/02/09 04:26:12;;;;;;;70.07;22.57;;;;;;;-145.69;100.00;52693.94;5108630;28;20683;-81
2023/02/09 04:28:39;;;;;;;63.63;22.63;;;;;;;-145.69;100.00;52693.94;5107980;27;20201;-81
2023/02/09 04:31:06;;;;;;;66.47;21.13;;;;;;;-145.69;100.00;52656.28;5116550;28;20693;-81
2023/02/09 04:33:32;;;;;;;79.20;22.80;;;;;;;-145.69;100.00;52646.41;5113361;28;20197;-82
2023/02/09 04:35:59;;;;;;;68.30;23.07;;;;;;;-145.69;100.00;52666.19;5110415;28;20193;-81
2023/02/09 04:38:25;;;;;;;63.00;22.83;;;;;;;-145.69;100.00;52697.88;5117008;28;20225;-80
2023/02/09 04:40:54;;;;;;;66.77;22.00;;;;;;;-145.69;100.00;52668.19;5116733;28;20208;-81
2023/02/09 04:43:22;;;;;;;65.97;21.03;;;;;;;-145.69;100.00;52687.97;5116324;28;20607;-81
2023/02/09 04:45:49;;;;;;;64.53;22.13;;;;;;;-145.69;100.00;52715.72;5116664;28;20197;-81
2023/02/09 04:48:18;;;;;;;57.53;19.23;;;;;;;-145.69;100.00;52699.88;5115812;28;20204;-81
2023/02/09 04:50:45;;;;;;;61.73;20.10;;;;;;;-145.69;100.00;52674.13;5106095;28;20198;-81
2023/02/09 04:53:11;;;;;;;59.47;20.00;;;;;;;-145.69;100.00;52678.09;5096211;28;20203;-81
2023/02/09 04:55:39;;;;;;;54.57;20.97;;;;;;;-145.69;100.00;52717.69;5102996;28;20192;-82
2023/02/09 05:00:51;;;;;;;61.43;20.40;;;;;;;-145.69;100.00;52689.97;5115704;28;20204;-82
2023/02/09 05:03:18;;;;;;;68.63;22.03;;;;;;;-145.69;100.00;52707.78;5116887;28;20209;-81
2023/02/09 05:05:44;;;;;;;66.23;21.07;;;;;;;-145.69;100.00;52709.78;5116494;28;20217;-81
2023/02/09 05:08:11;;;;;;;66.60;20.07;;;;;;;-145.69;100.00;52684.03;5116753;28;20204;-82
2023/02/09 05:10:37;;;;;;;65.97;21.47;;;;;;;-145.69;100.00;52701.84;5116487;28;20202;-83
2023/02/09 05:13:04;;;;;;;54.13;19.43;;;;;;;-145.69;100.00;52701.84;5098452;28;20202;-81
2023/02/09 05:15:30;;;;;;;58.93;19.87;;;;;;;-145.69;100.00;52680.06;5095735;28;20198;-81
2023/02/09 05:17:58;;;;;;;70.83;21.77;;;;;;;-145.69;100.00;52666.19;5095564;28;20222;-82
2023/02/09 05:20:25;;;;;;;64.13;22.20;;;;;;;-145.69;100.00;52705.81;5095763;28;20213;-82
2023/02/09 05:22:51;;;;;;;76.03;22.47;;;;;;;-145.69;100.00;52678.09;5095785;28;20198;-82
2023/02/09 05:25:18;;;;;;;69.03;22.50;;;;;;;-145.69;100.00;52695.91;5095791;28;20225;-82
2023/02/09 05:27:44;;;;;;;68.87;21.63;;;;;;;-145.69;100.00;52682.03;5095805;28;20213;-83
2023/02/09 05:30:11;;;;;;;67.73;22.33;;;;;;;-145.69;100.00;52697.88;5095830;28;20198;-83
2023/02/09 05:32:38;;;;;;;71.70;22.53;;;;;;;-145.69;100.00;52697.88;5096084;28;20206;-83
2023/02/09 05:35:07;;;;;;;71.87;22.67;;;;;;;-145.69;100.00;52687.97;5095898;28;20213;-83
2023/02/09 05:37:33;;;;;;;60.83;21.00;;;;;;;-145.69;100.00;52642.44;5112133;28;20240;-83
2023/02/09 05:40:00;;;;;;;78.57;23.70;;;;;;;-145.69;100.00;52717.69;5115976;28;20212;-83
2023/02/09 05:42:26;;;;;;;83.90;24.63;;;;;;;-145.69;100.00;52672.13;5115620;28;20229;-83
2023/02/09 05:44:53;;;;;;;63.90;21.97;;;;;;;-145.69;100.00;52705.81;5116249;28;20205;-83
2023/02/09 05:47:22;;;;;;;77.83;24.50;;;;;;;-145.69;100.00;52697.88;5116038;28;20205;-82
2023/02/09 05:49:48;;;;;;;68.40;22.17;;;;;;;-145.69;100.00;52697.88;5097145;28;20198;-83
2023/02/09 05:52:16;;;;;;;80.27;22.57;;;;;;;-145.69;100.00;52658.28;5095451;28;20210;-83
2023/02/09 05:54:43;;;;;;;82.90;24.47;;;;;;;-145.69;100.00;52691.94;5095370;28;20206;-83
2023/02/09 05:57:10;;;;;;;60.17;21.67;;;;;;;-145.69;100.00;52705.81;5095381;28;20222;-83
2023/02/09 05:59:37;;;;;;;66.93;22.00;;;;;;;-145.69;100.00;52686.00;5095419;28;20202;-83
2023/02/09 06:02:14;;;;;;;71.13;21.03;;;;;;;-145.69;100.00;52697.88;5095564;28;20205;-82
2023/02/09 06:04:41;;;;;;;69.23;22.33;;;;;;;-145.69;100.00;52701.84;5104739;28;20630;-82
2023/02/09 06:07:08;;;;;;;71.63;22.03;;;;;;;-145.69;100.00;52684.03;5095033;28;20557;-82
2023/02/09 06:09:35;;;;;;;76.20;23.37;;;;;;;-145.69;100.00;52697.88;5095320;28;20289;-82
2023/02/09 06:12:02;;;;;;;71.23;24.43;;;;;;;-145.69;100.00;52693.94;5095147;28;20221;-81
2023/02/09 06:14:28;;;;;;;80.33;23.23;;;;;;;-145.69;100.00;52693.94;5113519;28;20200;-82
2023/02/09 06:16:55;;;;;;;71.37;23.30;;;;;;;-145.69;100.00;52715.72;5115106;28;20197;-83
2023/02/09 06:19:22;;;;;;;66.93;20.73;;;;;;;-145.69;100.00;52678.09;5115452;28;20201;-83
2023/02/09 06:21:49;;;;;;;67.50;22.93;;;;;;;-145.69;100.00;52711.75;5115352;28;20198;-84
2023/02/09 06:24:18;;;;;;;66.47;21.80;;;;;;;-145.69;100.00;52687.97;5114965;28;20211;-83
2023/02/09 06:26:46;;;;;;;63.27;22.00;;;;;;;-145.69;100.00;52695.91;5115237;28;20297;-83
2023/02/09 06:29:13;;;;;;;73.00;22.37;;;;;;;-145.69;100.00;52672.13;5100699;27;20197;-82
2023/02/09 06:31:40;;;;;;;75.00;22.57;;;;;;;-145.69;100.00;52646.41;5094850;28;20208;-83
2023/02/09 06:34:07;;;;;;;76.67;23.23;;;;;;;-145.69;100.00;52670.16;5100576;28;20197;-83
2023/02/09 06:36:33;;;;;;;75.83;23.43;;;;;;;-145.69;100.00;52686.00;5110727;28;20541;-83
2023/02/09 06:39:00;;;;;;;63.27;21.70;;;;;;;-145.69;100.00;52697.88;5115267;28;20229;-83
2023/02/09 06:41:27;;;;;;;72.20;23.97;;;;;;;-145.69;100.00;52713.72;5114897;28;20241;-83
2023/02/09 06:43:55;;;;;;;65.67;21.00;;;;;;;-145.69;100.00;52687.97;5115206;28;20202;-82
2023/02/09 06:46:21;;;;;;;61.90;21.40;;;;;;;-145.69;100.00;52705.81;5115074;28;20198;-83
2023/02/09 06:48:48;;;;;;;65.90;20.80;;;;;;;-145.69;100.00;52701.84;5114864;28;20564;-82
2023/02/09 06:51:15;;;;;;;64.87;22.60;;;;;;;-145.69;100.00;52729.56;5074233;28;20207;-83
2023/02/09 06:53:43;;;;;;;70.50;22.23;;;;;;;-145.69;100.00;52697.88;5074620;28;20198;-83
2023/02/09 06:56:11;;;;;;;74.07;22.80;;;;;;;-145.69;100.00;52701.84;5074574;28;20198;-83
2023/02/09 06:58:38;;;;;;;66.20;22.17;;;;;;;-145.69;100.00;52678.09;5082821;28;20214;-82
2023/02/09 07:01:08;;;;;;;66.63;20.43;;;;;;;-145.69;100.00;52703.81;5094573;28;20201;-83
2023/02/09 07:03:35;;;;;;;78.23;23.23;;;;;;;-145.69;100.00;52654.31;5094094;28;20695;-83
2023/02/09 07:06:11;;;;;;;68.63;21.23;;;;;;;-145.69;100.00;52680.06;5094437;28;20204;-85
2023/02/09 07:08:38;;;;;;;70.77;22.83;;;;;;;-145.69;100.00;52701.84;5094515;28;20204;-84
2023/02/09 07:11:06;;;;;;;60.40;19.57;;;;;;;-145.69;100.00;52707.78;5094926;28;20198;-84
2023/02/09 07:13:32;;;;;;;74.27;21.23;;;;;;;-145.69;100.00;52674.13;5098034;28;20196;-82
2023/02/09 07:16:01;;;;;;;74.20;22.30;;;;;;;-145.69;100.00;52699.88;5114056;28;20205;-82
2023/02/09 07:18:34;;;;;;;68.50;21.10;;;;;;;-145.69;100.00;52693.94;5114153;28;20233;-82
2023/02/09 07:21:02;;;;;;;69.50;20.57;;;;;;;-145.69;100.00;52678.09;5114095;28;20537;-82
2023/02/09 07:23:32;;;;;;;64.90;19.93;;;;;;;-145.69;100.00;52682.03;5114026;28;20200;-85
2023/02/09 07:26:01;;;;;;;62.50;20.33;;;;;;;-145.69;100.00;52697.88;5106445;28;20285;-83
2023/02/09 07:28:30;;;;;;;55.00;19.37;;;;;;;-145.69;100.00;52670.16;5093731;28;20229;-82
2023/02/09 07:31:04;;;;;;;80.28;27.60;;;;;;;-145.69;100.00;52705.81;5092887;28;20436;-84
2023/02/09 07:33:33;;;;;;;65.53;21.40;;;;;;;-145.69;100.00;52670.16;5093683;28;20198;-84
2023/02/09 07:36:02;;;;;;;61.20;21.03;;;;;;;-145.69;100.00;52672.13;5093581;28;20665;-84
2023/02/09 07:38:29;;;;;;;60.17;19.67;;;;;;;-145.69;100.00;52701.84;5096970;28;20307;-85
2023/02/09 07:40:55;;;;;;;59.83;20.70;;;;;;;-145.69;100.00;52703.81;5112491;28;20201;-82
2023/02/09 07:43:22;;;;;;;59.23;20.57;;;;;;;-145.69;100.00;52705.81;5117939;28;20233;-84
2023/02/09 07:45:48;;;;;;;55.40;18.37;;;;;;;-145.69;100.00;52680.06;5118422;28;20208;-84
2023/02/09 07:48:19;;;;;;;63.13;19.47;;;;;;;-145.69;100.00;52684.03;5118347;28;20700;-82
2023/02/09 07:50:49;;;;;;;57.87;19.87;;;;;;;-145.69;100.00;52687.97;5118360;28;20209;-84
2023/02/09 07:53:17;;;;;;;59.53;18.00;;;;;;;-145.69;100.00;52693.94;5117717;28;20201;-82
2023/02/09 07:55:43;;;;;;;58.40;19.40;;;;;;;-145.69;100.00;52678.09;5117535;28;20293;-84
2023/02/09 07:58:10;;;;;;;56.23;20.47;;;;;;;-145.69;100.00;52670.16;5117784;28;20247;-83
2023/02/09 08:00:37;;;;;;;60.83;19.93;;;;;;;-145.69;100.00;52660.25;5117953;28;20568;-82
2023/02/09 08:03:04;;;;;;;63.43;20.40;;;;;;;-145.69;100.00;52729.56;5117312;28;20255;-82
2023/02/09 08:05:37;;;;;;;62.67;20.50;;;;;;;-145.69;100.00;52664.22;5115663;28;20196;-82
2023/02/09 08:08:07;;;;;;;65.23;21.43;;;;;;;-145.69;100.00;52678.09;5097883;28;20198;-82
2023/02/09 08:10:35;;;;;;;61.27;19.43;;;;;;;-145.69;100.00;52658.28;5097092;28;20213;-82
2023/02/09 08:13:02;;;;;;;57.37;18.40;;;;;;;-145.69;100.00;52686.00;5096860;28;20205;-83
2023/02/09 08:15:34;;;;;;;52.37;17.63;;;;;;;-145.69;100.00;52687.97;5098075;28;20555;-82
2023/02/09 08:18:04;;;;;;;43.40;15.77;;;;;;;-145.69;100.00;52654.31;5117025;28;20226;-82
2023/02/09 08:20:32;;;;;;;52.90;18.70;;;;;;;-145.69;100.00;52686.00;5116810;28;20208;-82
2023/02/09 08:23:05;;;;;;;55.70;19.13;;;;;;;-145.69;100.00;52713.72;5116541;28;20205;-82
2023/02/09 08:25:34;;;;;;;41.23;14.43;;;;;;;-145.69;100.00;52682.03;5098842;28;20194;-82
2023/02/09 08:28:02;;;;;;;41.67;14.20;;;;;;;-145.69;100.00;52701.84;5089590;28;20204;-82
2023/02/09 08:30:29;;;;;;;49.60;15.73;;;;;;;-145.69;100.00;52693.94;5112673;28;20207;-82
2023/02/09 08:32:55;;;;;;;51.50;16.90;;;;;;;-145.69;100.00;52638.47;5096227;28;20190;-82
2023/02/09 08:35:22;;;;;;;37.13;13.07;;;;;;;-145.69;100.00;52682.03;5096278;28;20202;-80
2023/02/09 08:37:48;;;;;;;43.63;13.53;;;;;;;-145.69;100.00;52646.41;5096170;28;20289;-83
2023/02/09 08:40:19;;;;;;;35.57;12.83;;;;;;;-145.69;100.00;52642.44;5102903;28;20271;-83
2023/02/09 08:42:53;;;;;;;35.80;11.80;;;;;;;-145.69;100.00;52670.16;5116374;28;20229;-83
2023/02/09 08:45:22;;;;;;;29.17;9.97;;;;;;;-145.69;100.00;52672.13;5116048;28;20194;-81
2023/02/09 08:47:49;;;;;;;28.27;10.50;;;;;;;-145.69;100.00;52650.34;5115883;28;20202;-82
2023/02/09 08:50:16;;;;;;;31.77;10.87;;;;;;;-145.69;100.00;52650.34;5116546;28;20212;-82
2023/02/09 08:52:45;;;;;;;25.97;9.63;;;;;;;-145.69;100.00;52652.34;5108843;28;20256;-84
2023/02/09 08:55:12;;;;;;;27.23;10.13;;;;;;;-145.69;100.00;52670.16;5097088;28;20664;-84
2023/02/09 08:57:46;;;;;;;29.13;11.13;;;;;;;-145.69;100.00;52652.34;5097085;28;20206;-81
2023/02/09 09:00:16;;;;;;;23.03;9.80;;;;;;;-145.69;100.00;52666.19;5095710;28;20202;-80
2023/02/09 09:02:43;;;;;;;29.07;10.10;;;;;;;-145.69;100.00;52628.56;5115806;28;20255;-81
2023/02/09 09:05:09;;;;;;;27.67;10.37;;;;;;;-145.69;100.00;52650.34;5102405;28;20190;-81
2023/02/09 09:07:36;;;;;;;28.13;10.97;;;;;;;-145.69;100.00;52697.88;5095676;28;20202;-80
2023/02/09 09:10:02;;;;;;;27.57;10.33;;;;;;;-145.69;100.00;52664.22;5095710;28;20204;-80
2023/02/09 09:12:29;;;;;;;23.50;9.43;;;;;;;-145.69;100.00;52646.41;5095470;28;20593;-82
2023/02/09 09:14:56;;;;;;;26.07;10.83;;;;;;;-145.69;100.00;52646.41;5095253;28;20588;-82
2023/02/09 09:17:24;;;;;;;29.70;11.57;;;;;;;-145.69;100.00;52656.28;5110019;28;20640;-82
2023/02/09 09:19:51;;;;;;;30.50;12.10;;;;;;;-145.69;100.00;52678.09;5115890;28;20229;-83
2023/02/09 09:22:17;;;;;;;40.43;18.63;;;;;;;-145.69;100.00;52638.47;5115953;28;20197;-81
2023/02/09 09:24:44;;;;;;;33.93;14.90;;;;;;;-145.69;100.00;52624.59;5115771;28;20276;-81
2023/02/09 09:27:11;;;;;;;28.03;11.83;;;;;;;-145.69;100.00;52674.13;5115729;28;20208;-82
2023/02/09 09:29:38;;;;;;;29.83;12.20;;;;;;;-145.69;100.00;52632.53;5108180;28;20644;-83
2023/02/09 09:32:05;;;;;;;27.10;11.50;;;;;;;-145.69;100.00;52664.22;5099597;28;20205;-83
2023/02/09 09:34:33;;;;;;;34.73;13.00;;;;;;;-145.69;100.00;52648.38;5095700;28;20198;-87
2023/02/09 09:36:59;;;;;;;30.77;12.50;;;;;;;-145.69;100.00;52638.47;5096721;28;20225;-84
2023/02/09 09:39:29;;;;;;;35.27;13.77;;;;;;;-145.69;100.00;52630.53;5103448;28;20224;-85
2023/02/09 09:41:59;;;;;;;36.43;13.10;;;;;;;-145.69;100.00;52691.94;5117408;28;20229;-83
2023/02/09 09:44:31;;;;;;;32.70;12.63;;;;;;;-145.69;100.00;52666.19;5115919;28;20211;-85
2023/02/09 09:47:00;;;;;;;38.63;13.63;;;;;;;-145.69;100.00;52642.44;5116177;28;20233;-84
2023/02/09 09:49:33;;;;;;;30.40;13.13;;;;;;;-145.69;100.00;52658.28;5115901;28;20199;-83
2023/02/09 09:52:05;;;;;;;35.47;13.00;;;;;;;-145.69;100.00;52648.38;5116037;28;20204;-84
2023/02/09 09:54:34;;;;;;;30.40;11.80;;;;;;;-145.69;100.00;52630.53;5115791;28;20197;-82
2023/02/09 09:57:01;;;;;;;31.27;12.07;;;;;;;-145.69;100.00;52624.59;5115575;28;20200;-82
2023/02/09 09:59:38;;;;;;;27.23;10.50;;;;;;;-145.69;100.00;52624.59;5107241;28;20703;-82
2023/02/09 10:02:17;;;;;;;25.90;10.43;;;;;;;-145.69;100.00;52658.28;5110177;28;20204;-83
2023/02/09 10:04:46;;;;;;;26.93;10.00;;;;;;;-145.69;100.00;52630.53;5097809;28;20225;-81
2023/02/09 10:07:19;;;;;;;24.37;9.90;;;;;;;-145.69;100.00;52612.72;5095119;28;20198;-81
2023/02/09 10:09:50;;;;;;;27.88;11.85;;;;;;;-145.69;100.00;52660.25;5094242;28;20489;-82
2023/02/09 10:12:33;;;;;;;24.03;11.23;;;;;;;-145.69;100.00;52650.34;5094653;28;20560;-81
2023/02/09 10:15:16;;;;;;;24.70;10.67;;;;;;;-145.69;100.00;52604.81;5094383;28;20202;-83
2023/02/09 10:17:43;;;;;;;32.60;10.73;;;;;;;-145.69;100.00;52630.53;5115154;28;20197;-81
2023/02/09 10:20:13;;;;;;;31.20;11.70;;;;;;;-145.69;100.00;52624.59;5114831;28;20236;-83
2023/02/09 10:22:39;;;;;;;24.70;10.10;;;;;;;-145.69;100.00;52650.34;5114619;28;20201;-81
2023/02/09 10:25:40;;;;;;;26.47;10.23;;;;;;;-145.69;100.00;52616.69;5114814;28;20684;-82
2023/02/09 10:28:19;;;;;;;26.90;10.83;;;;;;;-145.69;100.00;52638.47;5105588;28;20716;-82
2023/02/09 10:30:47;;;;;;;22.97;9.83;;;;;;;-145.69;96.28;52646.41;5109955;28;20228;-81
2023/02/09 10:33:15;;;;;;;29.80;10.50;;;;;;;-145.69;97.96;52614.72;5094193;28;20198;-81
2023/02/09 10:35:47;;;;;;;24.23;10.67;;;;;;;-145.69;99.38;52616.69;5094334;28;20194;-82
2023/02/09 10:38:17;;;;;;;27.13;10.20;;;;;;;-145.69;100.00;52604.81;5094190;28;20202;-81
2023/02/09 10:40:46;;;;;;;27.33;10.80;;;;;;;-145.69;95.89;52626.59;5106328;28;20225;-80
2023/02/09 10:43:21;;;;;;;23.73;10.13;;;;;;;-145.69;96.37;52634.50;5113827;28;20579;-81
2023/02/09 10:45:54;;;;;;;26.40;9.87;;;;;;;-145.69;93.48;52596.88;5114227;28;20204;-81
2023/02/09 10:48:22;;;;;;;30.77;10.63;;;;;;;-145.69;100.00;52618.66;5114088;28;20198;-81
2023/02/09 10:50:54;;;;;;;28.57;10.80;;;;;;;-145.69;96.10;52642.44;5113863;28;20211;-82
2023/02/09 10:53:23;;;;;;;27.27;11.47;;;;;;;-145.69;90.87;52618.66;5095964;28;20487;-81
2023/02/09 10:55:51;;;;;;;23.80;9.40;;;;;;;-145.69;77.59;52618.66;5093664;28;20198;-80
2023/02/09 10:58:24;;;;;;;33.60;11.93;;;;;;;-145.69;91.60;52624.59;5093526;28;20202;-80
2023/02/09 11:01:01;;;;;;;30.93;11.43;;;;;;;-145.69;85.88;52630.53;5097230;28;20204;-80
2023/02/09 11:03:27;;;;;;;35.03;15.55;;;;;;;-145.69;90.48;52654.31;5111317;28;20842;-80
2023/02/09 11:06:17;;;;;;;29.00;12.23;;;;;;;-145.69;90.84;52620.66;5110563;28;20667;-80